Time;durP1;ratioP1;P1;durP2;ratioP2;P2;SDS_P1;SDS_P2;PMS_P1;PMS_P2;Temp;Humidity;BMP_temperature;BMP_pressure;BME280_temperature;BME280_humidity;BME280_pressure;Samples;Min_cycle;Max_cycle;Signal;HPM_P1;HPM_P2
2021/06/30 00:00:13;;;;;;;1.80;0.60;;;17.80;97.20;17.60;99602.00;;;;341389;28;93473;-90
2021/06/30 00:00:29;;;;;;;1.50;0.60;;;17.70;97.20;17.60;99602.00;;;;341179;28;92021;-90
2021/06/30 00:00:41;;;;;;;1.27;0.70;;;17.70;97.20;17.60;99597.00;;;;345377;28;93674;-91
2021/06/30 00:00:53;;;;;;;1.38;0.65;;;17.70;97.10;17.70;99603.00;;;;340841;28;91686;-91
2021/06/30 00:01:10;;;;;;;2.20;0.50;;;17.80;97.20;17.70;99600.00;;;;342564;28;92291;-91
2021/06/30 00:01:26;;;;;;;2.20;0.50;;;17.70;97.10;17.80;99600.00;;;;342012;28;92109;-89
2021/06/30 00:01:43;;;;;;;1.65;0.40;;;17.80;97.10;17.70;99599.00;;;;341374;28;94371;-91
2021/06/30 00:01:55;;;;;;;1.75;0.60;;;17.80;97.20;17.70;99601.00;;;;339825;28;92291;-91
2021/06/30 00:02:06;;;;;;;2.38;0.70;;;17.70;97.20;17.80;99599.00;;;;341400;28;94288;-90
2021/06/30 00:02:18;;;;;;;2.20;0.77;;;17.80;97.20;17.80;99600.00;;;;341048;28;92160;-90
2021/06/30 00:02:30;;;;;;;1.48;0.65;;;17.70;97.20;17.80;99602.00;;;;343537;28;94336;-91
2021/06/30 00:02:42;;;;;;;2.00;0.70;;;17.70;97.20;17.80;99600.00;;;;342649;28;91992;-91
2021/06/30 00:02:59;;;;;;;1.80;0.60;;;17.70;97.20;18.00;99601.00;;;;341282;28;93256;-91
2021/06/30 00:03:15;;;;;;;1.42;0.60;;;17.80;97.20;17.80;99597.00;;;;341213;28;91166;-91
2021/06/30 00:03:27;;;;;;;1.60;0.75;;;17.80;97.20;17.70;99599.00;;;;341277;28;93206;-90
2021/06/30 00:03:39;;;;;;;1.88;0.70;;;17.80;97.20;17.80;99597.00;;;;342554;28;91997;-91
2021/06/30 00:03:56;;;;;;;2.08;0.60;;;17.80;97.10;17.70;99600.00;;;;344124;28;93959;-91
2021/06/30 00:04:13;;;;;;;3.08;0.55;;;17.80;97.10;17.70;99598.00;;;;342520;28;92013;-90
2021/06/30 00:04:25;;;;;;;3.72;0.70;;;17.80;97.10;17.70;99604.00;;;;341074;28;93374;-90
2021/06/30 00:04:42;;;;;;;2.58;0.65;;;17.80;97.10;17.80;99600.00;;;;339926;28;91922;-91
2021/06/30 00:04:54;;;;;;;2.00;0.70;;;17.80;97.10;17.90;99602.00;;;;340021;28;94978;-91
2021/06/30 00:05:10;;;;;;;2.65;0.68;;;17.80;97.10;17.80;99600.00;;;;342626;28;91965;-91
2021/06/30 00:05:22;;;;;;;2.88;0.68;;;17.80;97.10;17.70;99602.00;;;;343040;28;94271;-90
2021/06/30 00:05:36;;;;;;;1.95;0.60;;;17.80;97.00;17.70;99601.00;;;;342383;28;91355;-91
2021/06/30 00:05:53;;;;;;;2.13;0.57;;;17.80;97.00;17.80;99594.00;;;;342211;28;92368;-90
2021/06/30 00:06:10;;;;;;;2.60;0.60;;;17.80;97.00;17.70;99609.00;;;;342581;28;91987;-91
2021/06/30 00:06:27;;;;;;;1.73;0.60;;;17.80;97.00;17.80;99603.00;;;;341546;28;93587;-90
2021/06/30 00:06:43;;;;;;;1.90;0.60;;;17.80;97.00;17.70;99597.00;;;;343700;28;92729;-91
2021/06/30 00:06:55;;;;;;;2.53;0.70;;;17.80;97.00;17.80;99599.00;;;;342690;28;93318;-91
2021/06/30 00:07:12;;;;;;;2.22;0.90;;;17.80;97.00;17.90;99602.00;;;;342688;28;91933;-91
2021/06/30 00:07:24;;;;;;;1.80;0.80;;;17.80;97.30;17.90;99594.00;;;;339976;28;94731;-91
2021/06/30 00:07:35;;;;;;;1.73;0.80;;;17.80;97.00;18.10;99598.00;;;;341166;28;92153;-91
2021/06/30 00:07:47;;;;;;;2.22;0.90;;;17.80;97.00;18.10;99597.00;;;;341390;28;94343;-90
2021/06/30 00:08:04;;;;;;;2.55;1.05;;;17.80;97.00;18.00;99603.00;;;;342687;28;91183;-90
2021/06/30 00:08:21;;;;;;;3.25;0.73;;;17.80;97.00;17.90;99606.00;;;;342304;28;93280;-91
2021/06/30 00:08:33;;;;;;;3.60;0.85;;;17.80;97.00;17.80;99612.00;;;;342523;28;92012;-91
2021/06/30 00:08:51;;;;;;;1.98;0.90;;;17.80;97.00;17.80;99602.00;;;;339964;28;93917;-91
2021/06/30 00:09:04;;;;;;;2.67;0.68;;;17.80;97.00;17.80;99603.00;;;;341147;28;91086;-90
2021/06/30 00:09:16;;;;;;;3.25;0.85;;;17.80;97.00;17.90;99597.00;;;;341306;28;93598;-90
2021/06/30 00:09:28;;;;;;;2.72;0.93;;;17.80;97.00;17.80;99604.00;;;;341082;28;91200;-90
2021/06/30 00:09:40;;;;;;;2.30;0.88;;;17.80;97.00;17.70;99609.00;;;;342733;28;94674;-90
2021/06/30 00:09:56;;;;;;;3.55;0.85;;;17.80;97.00;17.80;99602.00;;;;342641;28;91020;-91
2021/06/30 00:10:09;;;;;;;4.95;0.88;;;17.80;97.00;17.90;99602.00;;;;340063;28;94513;-90
2021/06/30 00:10:21;;;;;;;4.53;0.70;;;17.80;97.00;18.00;99596.00;;;;342562;28;91475;-91
2021/06/30 00:10:32;;;;;;;3.15;0.80;;;17.80;97.00;18.10;99602.00;;;;345440;28;93819;-90
2021/06/30 00:10:44;;;;;;;2.65;0.80;;;17.80;97.00;17.90;99605.00;;;;341286;28;91070;-89
2021/06/30 00:10:56;;;;;;;2.92;0.93;;;17.80;97.00;17.80;99601.00;;;;341155;28;93592;-90
2021/06/30 00:11:08;;;;;;;3.70;1.15;;;17.80;97.00;17.80;99598.00;;;;342659;28;91048;-90
2021/06/30 00:11:21;;;;;;;3.65;1.02;;;17.80;97.00;17.80;99604.00;;;;342946;28;94617;-90
2021/06/30 00:11:32;;;;;;;3.67;1.00;;;17.80;97.00;17.70;99606.00;;;;340909;28;92123;-89
2021/06/30 00:11:49;;;;;;;2.72;1.00;;;17.70;97.00;17.80;99598.00;;;;342743;28;94092;-91
2021/06/30 00:12:02;;;;;;;2.30;0.73;;;17.70;97.00;17.70;99601.00;;;;339790;28;92011;-91
2021/06/30 00:12:18;;;;;;;2.30;0.90;;;17.70;97.10;17.80;99606.00;;;;341366;28;93397;-91
2021/06/30 00:12:36;;;;;;;1.88;0.77;;;17.70;97.10;17.90;99599.00;;;;343964;28;91590;-90
2021/06/30 00:12:48;;;;;;;2.30;0.65;;;17.70;97.20;18.00;99600.00;;;;342782;28;93943;-90
2021/06/30 00:13:00;;;;;;;1.95;0.60;;;17.70;97.20;17.80;99598.00;;;;341202;28;92104;-91
2021/06/30 00:13:12;;;;;;;2.60;0.90;;;17.70;97.20;17.70;99603.00;;;;342679;28;94644;-91
2021/06/30 00:13:24;;;;;;;3.38;0.98;;;17.70;97.20;17.70;99612.00;;;;339894;28;91069;-90
2021/06/30 00:13:36;;;;;;;3.50;1.23;;;17.70;97.10;17.60;99608.00;;;;343977;28;94637;-91
2021/06/30 00:13:47;;;;;;;3.30;1.10;;;17.70;97.10;17.70;99608.00;;;;341339;28;91029;-91
2021/06/30 00:14:04;;;;;;;2.00;0.70;;;17.70;97.10;17.80;99601.00;;;;341260;28;93134;-89
2021/06/30 00:14:16;;;;;;;2.00;0.80;;;17.70;97.20;17.80;99591.00;;;;342062;28;92172;-89
2021/06/30 00:14:33;;;;;;;2.35;1.15;;;17.70;97.20;17.80;99608.00;;;;342871;28;93100;-91
2021/06/30 00:14:51;;;;;;;3.38;1.30;;;17.70;97.20;17.90;99596.00;;;;341177;28;91476;-90
2021/06/30 00:15:17;;;;;;;3.40;1.15;;;17.70;97.20;18.00;99600.00;;;;341453;28;92830;-91
2021/06/30 00:15:30;;;;;;;1.83;0.63;;;17.70;97.20;18.10;99596.00;;;;341034;28;91334;-90
2021/06/30 00:15:42;;;;;;;1.90;0.68;;;17.70;97.20;18.00;99602.00;;;;341259;28;95506;-91
2021/06/30 00:15:54;;;;;;;2.25;0.77;;;17.80;97.20;17.80;99600.00;;;;342611;28;91896;-90
2021/06/30 00:16:11;;;;;;;4.70;1.38;;;17.80;97.20;17.70;99605.00;;;;342602;28;94365;-91
2021/06/30 00:16:22;;;;;;;4.97;1.40;;;17.80;97.10;17.70;99604.00;;;;341247;28;91147;-90
2021/06/30 00:16:34;;;;;;;2.85;1.05;;;17.70;97.10;17.80;99601.00;;;;345467;28;93285;-91
2021/06/30 00:16:47;;;;;;;3.58;0.90;;;17.70;97.20;17.90;99599.00;;;;344027;28;91935;-91
2021/06/30 00:16:59;;;;;;;2.83;0.80;;;17.80;97.20;17.80;99600.00;;;;346830;28;93637;-91
2021/06/30 00:17:16;;;;;;;4.18;1.13;;;17.80;97.20;17.90;99592.00;;;;342606;28;91182;-91
2021/06/30 00:17:27;;;;;;;3.95;1.00;;;17.80;97.30;18.00;99605.00;;;;342199;28;92799;-89
2021/06/30 00:17:47;;;;;;;3.63;1.05;;;17.80;97.30;17.90;99596.00;;;;339884;28;91963;-91
2021/06/30 00:17:59;;;;;;;3.78;0.93;;;17.80;97.20;17.90;99602.00;;;;343920;28;94758;-88
2021/06/30 00:18:15;;;;;;;2.00;0.50;;;17.70;97.20;17.60;99598.00;;;;342457;28;92019;-91
2021/06/30 00:18:28;;;;;;;3.03;0.80;;;17.70;97.50;17.80;99608.00;;;;343938;28;94706;-90
2021/06/30 00:18:41;;;;;;;2.45;0.90;;;17.70;97.30;17.60;99600.00;;;;342587;28;92100;-91
2021/06/30 00:18:52;;;;;;;2.58;0.80;;;17.70;97.30;17.80;99607.00;;;;342754;28;93091;-90
2021/06/30 00:19:10;;;;;;;2.63;0.80;;;17.70;97.30;17.80;99605.00;;;;342586;28;91952;-90
2021/06/30 00:19:22;;;;;;;2.20;0.80;;;17.70;97.30;17.60;99606.00;;;;342735;28;94652;-91
2021/06/30 00:19:35;;;;;;;2.78;0.85;;;17.70;97.30;17.50;99609.00;;;;342495;28;90455;-90
2021/06/30 00:19:47;;;;;;;3.60;0.77;;;17.70;97.30;17.50;99603.00;;;;344167;28;93009;-90
2021/06/30 00:20:05;;;;;;;3.80;0.88;;;17.70;97.30;17.80;99603.00;;;;345313;28;91957;-91
2021/06/30 00:20:17;;;;;;;3.05;0.90;;;17.70;97.30;17.60;99603.00;;;;343848;28;93610;-90
2021/06/30 00:20:29;;;;;;;3.30;0.80;;;17.60;97.20;17.70;99608.00;;;;340408;28;92205;-91
2021/06/30 00:20:45;;;;;;;2.50;0.70;;;17.70;97.20;17.80;99605.00;;;;341340;28;94373;-91
2021/06/30 00:20:57;;;;;;;2.03;0.63;;;17.70;97.20;17.80;99603.00;;;;342615;28;91058;-91
2021/06/30 00:21:14;;;;;;;1.45;0.50;;;17.70;97.20;17.80;99608.00;;;;341355;28;94269;-91
2021/06/30 00:21:30;;;;;;;2.83;0.68;;;17.70;97.20;17.80;99609.00;;;;341111;28;92202;-90
2021/06/30 00:21:42;;;;;;;2.85;0.80;;;17.70;97.20;17.60;99601.00;;;;342449;28;94725;-91
2021/06/30 00:21:54;;;;;;;6.00;0.88;;;17.70;97.20;17.70;99597.00;;;;342648;28;90339;-91
2021/06/30 00:22:11;;;;;;;6.30;0.80;;;17.70;97.20;17.80;99604.00;;;;342752;28;93208;-91
2021/06/30 00:22:23;;;;;;;1.85;0.68;;;17.70;97.20;17.90;99606.00;;;;343932;28;91150;-90
2021/06/30 00:22:35;;;;;;;1.60;0.68;;;17.70;97.20;17.80;99608.00;;;;342751;28;93575;-90
2021/06/30 00:22:46;;;;;;;1.44;0.64;;;17.70;97.20;17.80;99603.00;;;;342619;28;91091;-91
2021/06/30 00:22:58;;;;;;;4.68;1.08;;;17.70;97.20;17.70;99599.00;;;;344058;28;94276;-90
2021/06/30 00:23:15;;;;;;;5.40;1.00;;;17.70;97.10;17.70;99612.00;;;;343889;28;91960;-90
2021/06/30 00:23:26;;;;;;;2.45;0.55;;;17.70;97.20;17.70;99606.00;;;;345063;28;94657;-90
2021/06/30 00:23:38;;;;;;;1.40;0.50;;;17.70;97.20;17.70;99608.00;;;;343857;28;91158;-90
2021/06/30 00:23:50;;;;;;;1.30;0.57;;;17.70;97.20;17.70;99603.00;;;;342564;28;94950;-90
2021/06/30 00:24:02;;;;;;;2.70;0.80;;;17.70;97.20;17.80;99604.00;;;;341284;28;91151;-90
2021/06/30 00:24:18;;;;;;;3.70;0.70;;;17.70;97.20;17.60;99599.00;;;;341273;28;93465;-90
2021/06/30 00:24:30;;;;;;;3.22;0.60;;;17.70;97.20;17.60;99601.00;;;;341221;28;91981;-90
2021/06/30 00:24:42;;;;;;;3.30;0.57;;;17.70;97.20;17.60;99597.00;;;;341338;28;95036;-91
2021/06/30 00:24:53;;;;;;;2.20;0.75;;;17.70;97.20;17.50;99606.00;;;;341165;28;91999;-90
2021/06/30 00:25:10;;;;;;;3.65;0.93;;;17.70;97.20;17.40;99605.00;;;;342350;28;93992;-89
2021/06/30 00:25:22;;;;;;;3.78;0.82;;;17.70;97.30;17.30;99603.00;;;;339667;28;91968;-91
2021/06/30 00:25:34;;;;;;;2.85;0.70;;;17.70;97.30;17.40;99601.00;;;;339971;28;94463;-90
2021/06/30 00:25:46;;;;;;;2.10;0.60;;;17.70;97.30;17.60;99605.00;;;;342565;28;91177;-91
2021/06/30 00:26:02;;;;;;;2.13;0.60;;;17.70;97.30;17.60;99610.00;;;;342700;28;94197;-90
2021/06/30 00:26:14;;;;;;;1.85;0.60;;;17.70;97.30;17.60;99602.00;;;;339896;28;91286;-90
2021/06/30 00:26:26;;;;;;;1.63;0.70;;;17.70;97.30;17.60;99603.00;;;;343754;28;94246;-91
2021/06/30 00:26:38;;;;;;;1.25;0.60;;;17.70;97.20;17.50;99601.00;;;;342551;28;92045;-91
2021/06/30 00:26:50;;;;;;;1.20;0.50;;;17.70;97.30;17.70;99608.00;;;;345466;28;94574;-91
2021/06/30 00:27:02;;;;;;;1.42;0.57;;;17.70;97.30;17.80;99598.00;;;;345561;28;91925;-91
2021/06/30 00:27:13;;;;;;;1.73;0.60;;;17.70;97.30;17.80;99601.00;;;;342808;28;93581;-90
2021/06/30 00:27:25;;;;;;;1.80;0.60;;;17.70;97.30;17.90;99602.00;;;;345240;28;92067;-91
2021/06/30 00:27:37;;;;;;;2.25;0.52;;;17.70;97.20;17.80;99599.00;;;;342483;28;94360;-90
2021/06/30 00:27:49;;;;;;;2.47;0.50;;;17.70;97.20;17.70;99601.00;;;;345452;28;91859;-91
2021/06/30 00:28:06;;;;;;;2.20;0.60;;;17.70;97.20;17.70;99600.00;;;;342649;28;94019;-89
2021/06/30 00:28:18;;;;;;;1.65;0.52;;;17.70;97.10;17.70;99603.00;;;;345300;28;91300;-89
2021/06/30 00:28:34;;;;;;;1.67;0.68;;;17.70;97.40;17.70;99601.00;;;;341473;28;92908;-92
2021/06/30 00:28:46;;;;;;;2.65;0.77;;;17.70;97.10;17.60;99603.00;;;;342624;28;92075;-91
2021/06/30 00:28:58;;;;;;;3.50;0.70;;;17.70;97.10;17.60;99603.00;;;;342728;28;94849;-90
2021/06/30 00:29:10;;;;;;;3.10;0.60;;;17.70;97.10;17.60;99600.00;;;;342727;28;92016;-91
2021/06/30 00:29:26;;;;;;;2.80;0.60;;;17.70;97.20;17.50;99600.00;;;;343793;28;94027;-90
2021/06/30 00:29:38;;;;;;;3.33;0.60;;;17.70;97.20;17.50;99601.00;;;;342544;28;91325;-90
2021/06/30 00:29:55;;;;;;;2.10;0.50;;;17.70;97.20;17.50;99611.00;;;;341316;28;93087;-91
2021/06/30 00:30:08;;;;;;;1.27;0.50;;;17.70;97.30;17.60;99601.00;;;;341271;28;91935;-89
2021/06/30 00:30:20;;;;;;;1.45;0.65;;;17.60;97.20;17.70;99605.00;;;;344003;28;93312;-90
2021/06/30 00:30:32;;;;;;;1.50;0.70;;;17.70;97.30;17.70;99603.00;;;;343995;28;91166;-92
2021/06/30 00:30:49;;;;;;;1.38;0.68;;;17.70;97.30;17.80;99603.00;;;;344064;28;93756;-91
2021/06/30 00:31:00;;;;;;;1.40;0.50;;;17.70;97.20;17.60;99595.00;;;;342533;28;92070;-91
2021/06/30 00:31:12;;;;;;;1.25;0.40;;;17.70;97.20;17.70;99595.00;;;;344082;28;94580;-91
2021/06/30 00:31:29;;;;;;;2.28;0.60;;;17.70;97.20;17.70;99604.00;;;;345044;28;91310;-91
2021/06/30 00:31:41;;;;;;;2.75;0.85;;;17.70;97.30;17.70;99610.00;;;;343853;28;94410;-91
2021/06/30 00:31:52;;;;;;;1.85;0.80;;;17.70;97.20;17.80;99602.00;;;;342636;28;91964;-90
2021/06/30 00:32:05;;;;;;;2.45;1.02;;;17.70;97.20;17.90;99595.00;;;;344079;28;94907;-91
2021/06/30 00:32:16;;;;;;;2.67;0.98;;;17.70;97.20;17.90;99603.00;;;;343810;28;91216;-91
2021/06/30 00:32:28;;;;;;;2.60;0.82;;;17.70;97.20;17.90;99601.00;;;;344038;28;93301;-91
2021/06/30 00:32:45;;;;;;;2.10;0.65;;;17.70;97.20;17.90;99602.00;;;;341528;28;91248;-91
2021/06/30 00:32:57;;;;;;;1.70;0.50;;;17.70;97.20;17.90;99610.00;;;;340263;28;94227;-92
2021/06/30 00:33:13;;;;;;;2.70;0.52;;;17.70;97.20;17.80;99601.00;;;;341481;28;91974;-91
2021/06/30 00:33:25;;;;;;;3.53;0.65;;;17.80;97.20;17.70;99603.00;;;;343792;28;93284;-91
2021/06/30 00:33:42;;;;;;;3.42;0.80;;;17.80;97.20;17.70;99611.00;;;;341526;28;91978;-91
2021/06/30 00:33:54;;;;;;;2.92;0.75;;;17.70;97.10;17.80;99605.00;;;;342975;28;94478;-91
2021/06/30 00:34:11;;;;;;;4.88;0.73;;;17.70;97.10;17.80;99597.00;;;;340120;28;91986;-91
2021/06/30 00:34:27;;;;;;;12.70;1.60;;;17.70;97.10;17.70;99607.00;;;;344191;28;93408;-88
2021/06/30 00:34:39;;;;;;;12.25;1.75;;;17.70;97.10;17.60;99601.00;;;;344068;28;91918;-91
2021/06/30 00:34:51;;;;;;;1.25;0.65;;;17.70;97.20;17.60;99599.00;;;;341480;28;94768;-91
2021/06/30 00:35:03;;;;;;;1.55;0.75;;;17.70;97.20;17.70;99600.00;;;;342710;28;91356;-90
2021/06/30 00:35:15;;;;;;;2.42;0.80;;;17.70;97.20;17.70;99599.00;;;;341694;28;93880;-91
2021/06/30 00:35:32;;;;;;;3.40;0.73;;;17.70;97.10;17.70;99602.00;;;;342360;28;91238;-90
2021/06/30 00:35:44;;;;;;;2.90;0.60;;;17.70;97.10;17.60;99598.00;;;;345656;28;94768;-91
2021/06/30 00:35:56;;;;;;;2.63;0.68;;;17.70;97.10;17.60;99605.00;;;;342899;28;92085;-91
2021/06/30 00:36:07;;;;;;;2.80;0.65;;;17.70;97.20;17.60;99598.00;;;;345769;28;94928;-90
2021/06/30 00:36:19;;;;;;;2.70;0.70;;;17.70;97.20;17.60;99604.00;;;;344046;28;91973;-91
2021/06/30 00:36:44;;;;;;;2.35;0.68;;;17.70;97.20;17.60;99601.00;;;;342981;28;94036;-91
2021/06/30 00:37:01;;;;;;;3.60;0.70;;;17.70;97.20;17.60;99601.00;;;;341318;28;91218;-91
2021/06/30 00:37:18;;;;;;;2.25;0.80;;;17.70;97.20;17.60;99603.00;;;;342765;28;94222;-88
2021/06/30 00:37:35;;;;;;;2.97;0.70;;;17.70;97.20;17.60;99600.00;;;;341253;28;91292;-91
2021/06/30 00:37:52;;;;;;;1.83;0.55;;;17.70;97.30;17.70;99605.00;;;;344066;28;92897;-91
2021/06/30 00:38:08;;;;;;;2.40;0.57;;;17.70;97.30;17.80;99607.00;;;;343833;28;92041;-90
2021/06/30 00:38:25;;;;;;;2.00;0.50;;;17.70;97.30;17.80;99608.00;;;;342931;28;93091;-91
2021/06/30 00:38:37;;;;;;;1.55;0.43;;;17.70;97.30;17.80;99603.00;;;;342478;28;92235;-89
2021/06/30 00:38:48;;;;;;;1.77;0.50;;;17.70;97.30;17.80;99607.00;;;;341170;28;94372;-90
2021/06/30 00:39:05;;;;;;;2.83;0.82;;;17.70;97.20;17.70;99606.00;;;;341205;28;91910;-91
2021/06/30 00:39:19;;;;;;;3.78;1.00;;;17.70;97.20;17.60;99602.00;;;;340066;28;94573;-91
2021/06/30 00:39:36;;;;;;;3.10;0.70;;;17.70;97.20;17.60;99603.00;;;;343731;28;92071;-91
2021/06/30 00:39:48;;;;;;;3.00;0.77;;;17.70;97.10;17.60;99606.00;;;;344075;28;93666;-90
2021/06/30 00:40:05;;;;;;;2.55;0.70;;;17.70;97.10;17.60;99603.00;;;;341161;28;90560;-91
2021/06/30 00:40:22;;;;;;;2.78;0.70;;;17.70;97.10;17.60;99605.00;;;;342713;28;92844;-91
2021/06/30 00:40:34;;;;;;;3.15;0.80;;;17.70;97.20;17.50;99599.00;;;;339941;28;91052;-90
2021/06/30 00:40:46;;;;;;;2.90;0.63;;;17.70;97.10;17.50;99603.00;;;;341266;28;94905;-90
2021/06/30 00:41:03;;;;;;;1.88;0.45;;;17.60;97.10;17.50;99599.00;;;;345319;28;92029;-91
2021/06/30 00:41:20;;;;;;;2.58;0.52;;;17.60;97.10;17.50;99599.00;;;;342797;28;94181;-91
2021/06/30 00:41:37;;;;;;;3.78;0.60;;;17.70;97.10;17.50;99600.00;;;;340407;28;92200;-91
2021/06/30 00:41:56;;;;;;;2.17;0.60;;;17.60;97.30;17.60;99594.00;;;;342538;28;94103;-91
2021/06/30 00:42:09;;;;;;;2.10;0.63;;;17.60;97.10;17.70;99602.00;;;;342484;28;91983;-89
2021/06/30 00:42:29;;;;;;;3.25;0.70;;;17.70;97.20;17.40;99599.00;;;;341721;28;93022;-91
2021/06/30 00:42:41;;;;;;;3.10;0.70;;;17.70;97.20;17.40;99601.00;;;;341259;28;90384;-91
2021/06/30 00:42:58;;;;;;;1.98;0.73;;;17.60;97.20;17.40;99596.00;;;;343948;28;93539;-90
2021/06/30 00:43:09;;;;;;;2.13;0.77;;;17.60;97.20;17.60;99596.00;;;;341183;28;91808;-89
2021/06/30 00:43:21;;;;;;;2.50;0.77;;;17.70;97.30;17.70;99591.00;;;;339804;28;94383;-91
2021/06/30 00:43:33;;;;;;;2.13;0.60;;;17.60;97.20;17.80;99600.00;;;;342524;28;91148;-89
2021/06/30 00:43:45;;;;;;;2.55;0.63;;;17.70;97.30;17.60;99600.00;;;;341272;28;94340;-90
2021/06/30 00:44:01;;;;;;;2.70;0.60;;;17.70;97.30;17.50;99599.00;;;;341184;28;91951;-90
2021/06/30 00:44:18;;;;;;;2.85;0.60;;;17.60;97.20;17.50;99602.00;;;;340999;28;93772;-90
2021/06/30 00:44:35;;;;;;;3.55;0.60;;;17.60;97.20;17.60;99595.00;;;;341096;28;92088;-91
2021/06/30 00:44:51;;;;;;;2.75;0.60;;;17.60;97.20;17.50;99597.00;;;;342593;28;94506;-89
2021/06/30 00:45:09;;;;;;;1.50;0.60;;;17.60;97.10;17.40;99602.00;;;;341283;28;91187;-89
2021/06/30 00:45:26;;;;;;;1.50;0.55;;;17.60;97.20;17.50;99591.00;;;;342680;28;93872;-91
2021/06/30 00:45:42;;;;;;;1.98;0.73;;;17.60;97.20;17.70;99598.00;;;;342466;28;92373;-91
2021/06/30 00:45:59;;;;;;;2.10;0.57;;;17.60;97.20;17.80;99597.00;;;;344087;28;94450;-91
2021/06/30 00:46:11;;;;;;;1.58;0.40;;;17.70;97.20;17.80;99598.00;;;;341191;28;91961;-91
2021/06/30 00:46:29;;;;;;;1.30;0.50;;;17.70;97.20;17.60;99597.00;;;;342724;28;93518;-90
2021/06/30 00:46:41;;;;;;;1.85;0.63;;;17.70;97.10;17.50;99599.00;;;;345255;28;91996;-90
2021/06/30 00:46:58;;;;;;;2.33;0.68;;;17.70;97.10;17.60;99594.00;;;;342411;28;94354;-90
2021/06/30 00:47:15;;;;;;;4.35;0.80;;;17.70;97.10;17.70;99599.00;;;;339874;28;91948;-91
2021/06/30 00:47:26;;;;;;;3.90;0.80;;;17.70;97.10;17.60;99593.00;;;;344982;28;93809;-90
2021/06/30 00:47:38;;;;;;;2.60;0.63;;;17.70;97.10;17.60;99597.00;;;;342415;28;91456;-90
2021/06/30 00:47:50;;;;;;;2.05;0.75;;;17.70;97.10;17.60;99592.00;;;;341641;28;94570;-90
2021/06/30 00:48:07;;;;;;;2.17;0.70;;;17.70;97.10;17.60;99593.00;;;;342577;28;91099;-89
2021/06/30 00:48:18;;;;;;;2.85;0.60;;;17.70;97.10;17.60;99599.00;;;;342668;28;94370;-89
2021/06/30 00:48:30;;;;;;;2.35;0.40;;;17.70;97.10;17.60;99599.00;;;;342643;28;91153;-91
2021/06/30 00:48:42;;;;;;;1.98;0.50;;;17.70;97.10;17.60;99600.00;;;;341286;28;95082;-90
2021/06/30 00:48:59;;;;;;;4.00;0.70;;;17.70;97.10;17.60;99597.00;;;;342434;28;92022;-90
2021/06/30 00:49:10;;;;;;;3.75;0.57;;;17.60;97.10;17.70;99604.00;;;;341338;28;94941;-89
2021/06/30 00:49:22;;;;;;;2.85;0.57;;;17.70;97.10;17.70;99605.00;;;;344042;28;91901;-91
2021/06/30 00:49:39;;;;;;;1.90;0.50;;;17.70;97.40;17.70;99603.00;;;;341065;28;94057;-90
2021/06/30 00:49:51;;;;;;;1.50;0.50;;;17.70;97.10;17.70;99596.00;;;;339841;28;91495;-90
2021/06/30 00:50:04;;;;;;;2.10;0.55;;;17.70;97.10;17.70;99592.00;;;;340034;28;94211;-90
2021/06/30 00:50:21;;;;;;;2.58;0.60;;;17.70;97.00;17.60;99600.00;;;;340083;28;92242;-90
2021/06/30 00:50:37;;;;;;;3.40;0.65;;;17.70;97.00;17.60;99597.00;;;;342101;28;94559;-90
2021/06/30 00:50:54;;;;;;;2.53;0.52;;;17.70;97.00;17.70;99596.00;;;;343721;28;92179;-90
2021/06/30 00:51:06;;;;;;;1.50;0.43;;;17.70;97.00;17.70;99599.00;;;;344059;28;94956;-91
2021/06/30 00:51:18;;;;;;;1.88;0.57;;;17.70;97.10;17.70;99604.00;;;;341271;28;91132;-89
2021/06/30 00:51:35;;;;;;;2.05;0.57;;;17.70;97.10;17.70;99604.00;;;;342593;28;94366;-89
2021/06/30 00:51:47;;;;;;;3.67;0.45;;;17.70;97.00;17.60;99600.00;;;;343997;28;91143;-89
2021/06/30 00:51:58;;;;;;;2.97;0.38;;;17.70;97.00;17.50;99594.00;;;;341298;28;93481;-89
2021/06/30 00:52:15;;;;;;;2.15;0.40;;;17.70;97.00;17.60;99593.00;;;;339469;28;91346;-90
2021/06/30 00:52:32;;;;;;;2.90;0.50;;;17.70;97.00;17.50;99601.00;;;;344064;28;93304;-91
2021/06/30 00:52:44;;;;;;;2.55;0.60;;;17.60;97.10;17.50;99598.00;;;;344010;28;91114;-91
2021/06/30 00:52:56;;;;;;;2.67;0.85;;;17.60;97.10;17.50;99598.00;;;;343931;28;94819;-90
2021/06/30 00:53:07;;;;;;;2.05;0.80;;;17.60;97.10;17.40;99597.00;;;;342602;28;92088;-90
2021/06/30 00:53:24;;;;;;;2.50;0.77;;;17.60;97.10;17.50;99593.00;;;;343316;28;93959;-91
2021/06/30 00:53:41;;;;;;;1.67;0.50;;;17.60;97.10;17.40;99593.00;;;;342438;28;92123;-91
2021/06/30 00:53:53;;;;;;;1.48;0.50;;;17.60;97.10;17.50;99605.00;;;;342061;28;93681;-90
2021/06/30 00:54:09;;;;;;;2.00;0.55;;;17.60;97.10;17.50;99606.00;;;;341158;28;92007;-89
2021/06/30 00:54:26;;;;;;;2.65;0.50;;;17.60;97.10;17.50;99604.00;;;;344746;28;93346;-90
2021/06/30 00:54:38;;;;;;;3.25;0.50;;;17.60;97.20;17.50;99601.00;;;;342683;28;90432;-90
2021/06/30 00:54:49;;;;;;;2.42;0.52;;;17.60;97.20;17.50;99600.00;;;;342576;28;94138;-90
2021/06/30 00:55:07;;;;;;;2.03;0.50;;;17.60;97.30;17.40;99592.00;;;;345308;28;91927;-91
2021/06/30 00:55:19;;;;;;;2.25;0.50;;;17.60;97.30;17.40;99601.00;;;;341329;28;94675;-91
2021/06/30 00:55:35;;;;;;;1.88;0.63;;;17.60;97.30;17.40;99599.00;;;;342525;28;91278;-91
2021/06/30 00:55:50;;;;;;;1.95;0.80;;;17.60;97.30;17.50;99602.00;;;;341279;28;94951;-91
2021/06/30 00:56:02;;;;;;;1.92;0.75;;;17.60;97.30;17.50;99607.00;;;;342565;28;92048;-91
2021/06/30 00:56:23;;;;;;;1.77;0.68;;;17.60;97.30;17.60;99602.00;;;;342250;28;93017;-90
2021/06/30 00:56:34;;;;;;;2.10;0.50;;;17.60;97.30;17.70;99597.00;;;;343379;28;91063;-90
2021/06/30 00:56:51;;;;;;;1.77;0.50;;;17.60;97.30;17.80;99599.00;;;;343172;28;93397;-90
2021/06/30 00:57:10;;;;;;;1.40;0.60;;;17.60;97.30;17.70;99603.00;;;;343910;28;91349;-91
2021/06/30 00:57:28;;;;;;;4.53;0.60;;;17.60;97.30;17.70;99601.00;;;;342591;28;92374;-90
2021/06/30 00:57:40;;;;;;;5.05;0.68;;;17.70;97.30;17.60;99602.00;;;;342591;28;92116;-91
2021/06/30 00:57:52;;;;;;;1.80;0.57;;;17.70;97.20;17.50;99606.00;;;;342692;28;94406;-91
2021/06/30 00:58:03;;;;;;;1.80;0.60;;;17.60;97.20;17.50;99600.00;;;;342486;28;92031;-90
2021/06/30 00:58:15;;;;;;;1.40;0.52;;;17.60;97.10;17.60;99599.00;;;;343797;28;95055;-90
2021/06/30 00:58:27;;;;;;;2.28;0.40;;;17.60;97.40;17.50;99603.00;;;;342605;28;91075;-90
2021/06/30 00:58:43;;;;;;;2.33;0.50;;;17.60;97.20;17.60;99594.00;;;;345347;28;94455;-91
2021/06/30 00:59:00;;;;;;;2.42;0.70;;;17.60;97.20;17.60;99603.00;;;;342439;28;91982;-91
2021/06/30 00:59:16;;;;;;;4.47;1.00;;;17.60;97.20;17.60;99604.00;;;;341261;28;93984;-91
2021/06/30 00:59:28;;;;;;;4.03;0.73;;;17.60;97.20;17.60;99606.00;;;;345012;28;91278;-90
2021/06/30 00:59:45;;;;;;;2.17;0.50;;;17.60;97.20;17.60;99611.00;;;;340034;28;92790;-92
2021/06/30 00:59:57;;;;;;;1.90;0.50;;;17.60;97.20;17.60;99608.00;;;;341140;28;91907;-91
2021/06/30 01:00:14;;;;;;;1.98;0.60;;;17.60;97.20;17.60;99600.00;;;;342624;28;94163;-91
2021/06/30 01:00:26;;;;;;;1.67;0.55;;;17.70;97.30;17.60;99603.00;;;;341107;28;92004;-91
2021/06/30 01:00:38;;;;;;;3.03;1.02;;;17.60;97.20;17.60;99610.00;;;;341354;28;93319;-90
2021/06/30 01:00:50;;;;;;;3.53;1.05;;;17.60;97.20;17.60;99602.00;;;;343502;28;92414;-90
2021/06/30 01:01:01;;;;;;;3.35;0.98;;;17.60;97.20;17.70;99606.00;;;;345340;28;94338;-91
2021/06/30 01:01:13;;;;;;;3.30;0.65;;;17.70;97.30;17.70;99611.00;;;;343762;28;92106;-90
2021/06/30 01:01:25;;;;;;;2.92;0.77;;;17.70;97.30;17.80;99607.00;;;;342650;28;94559;-91
2021/06/30 01:01:37;;;;;;;1.75;0.80;;;17.70;97.50;17.80;99607.00;;;;342536;28;91409;-90
2021/06/30 01:01:49;;;;;;;3.08;1.20;;;17.70;97.30;17.80;99614.00;;;;344146;28;93709;-90
2021/06/30 01:02:05;;;;;;;4.50;1.20;;;17.70;97.30;17.90;99605.00;;;;343918;28;91988;-91
2021/06/30 01:02:17;;;;;;;3.92;0.93;;;17.70;97.20;17.90;99600.00;;;;342278;28;94602;-90
2021/06/30 01:02:34;;;;;;;2.67;0.90;;;17.70;97.20;18.00;99605.00;;;;343827;28;91496;-91
2021/06/30 01:02:45;;;;;;;2.47;0.85;;;17.70;97.20;17.90;99614.00;;;;342766;28;94715;-90
2021/06/30 01:03:02;;;;;;;1.85;0.82;;;17.70;97.10;18.00;99613.00;;;;341127;28;92023;-90